メインページ
METAR-TAF:

METAR-TAF

空港 :

ドゥシャンベ, タジキスタン

ドゥシャンベ空港

緯度: 38-33N, 経度: 068-47E, 海抜: 803m

現時点の気象観測

当レポートは35分前の12:30(UTC)に作成
西の風 6kt、南西から西/北西の間で変化する
気温 14°C
湿度 21%
気圧 1016 hPa
視程: 9000m
高度6600ftの雲はほとんどない, 積乱雲.
高度12000ftの千切れ雲あり

METAR: UTDD 241230Z 27003MPS 220V300 9000 FEW066CB BKN120 14/M08 Q1016 R27/D TEMPO 28008MPS RMK QFE694/0925

時間: 18:05 (13:05 UTC)

予報

当レポートは1時間5分前の12:00(UTC)に作成
予報は24日の 13時(UTC)から 25日の 01時(UTC)まで有効
西の風 10kt
視程: 3000m
高度800ftの雲はほとんどない
高度4000ftの雲は散在している, 積乱雲.
高度7000ftの千切れ雲あり
煙霧, 煙
24日の 13時(UTC)から 25日の 01時(UTC)まで一時的に
西/北西の風 17kt、最大27ktの突風を伴う
視程: 1500m
にわか雨, 煙霧, 煙
確率 40% :
24日の 13時(UTC)から 25日の 01時(UTC)まで一時的に
激しい雷雨, 雨

TAF: UTDD 241200Z 2413/2501 26005MPS 3000 HZ FU FEW008 SCT040CB BKN070 TEMPO 2413/2501 29009G14MPS 1500 SHRA HZ FU PROB40 TEMPO 2413/2501 TSRA

4,000以上の空港の気象観測と天気予報(METAR報とTAF報)

利用可能な観測所は地図上に黄色い丸と赤い丸で示す。

丸の上にカーソルを重ねると観測所名を参照できる。

次にクリックすると気象観測と天気予報を参照できる。

マップの切り替え:黒色「×」印の緑ボタンをクリックして拡大、「-」印の緑ボタンをクリックして縮小、緑色の三角印をクリックして隣りの地図に切り替え


METAR-TAF: